createdAt,value
2022-09-21T00:01:27.859Z,11.00
2022-09-21T00:04:00.984Z,6.33
2022-09-21T00:06:30.399Z,8.03
2022-09-21T00:08:58.276Z,6.70
2022-09-21T00:11:30.799Z,8.13
2022-09-21T00:14:04.620Z,9.53
2022-09-21T00:16:32.283Z,8.37
2022-09-21T00:19:00.258Z,7.03
2022-09-21T00:21:28.319Z,8.98
2022-09-21T00:23:55.504Z,8.30
2022-09-21T00:26:26.045Z,6.93
2022-09-21T00:29:01.905Z,5.23
2022-09-21T00:31:31.105Z,7.30
2022-09-21T00:34:00.294Z,5.40
2022-09-21T00:36:28.507Z,11.97
2022-09-21T00:38:59.638Z,10.23
2022-09-21T00:41:29.434Z,6.13
2022-09-21T00:44:18.259Z,9.10
2022-09-21T00:46:48.975Z,11.23
2022-09-21T00:49:16.923Z,7.20
2022-09-21T00:51:45.120Z,7.20
2022-09-21T00:54:20.042Z,8.80
2022-09-21T00:56:47.403Z,7.67
2022-09-21T00:59:21.427Z,10.37
2022-09-21T01:01:49.647Z,7.00
2022-09-21T01:04:19.072Z,8.38
2022-09-21T01:06:47.914Z,10.90
2022-09-21T01:09:17.355Z,8.32
2022-09-21T01:12:23.181Z,11.63
2022-09-21T01:15:22.220Z,8.93
2022-09-21T01:18:26.528Z,9.17
2022-09-21T01:21:33.277Z,9.30
2022-09-21T01:24:29.764Z,12.33
2022-09-21T01:27:36.139Z,8.90
2022-09-21T01:30:23.661Z,11.10
2022-09-21T01:33:09.621Z,11.55
2022-09-21T01:36:01.086Z,11.30
2022-09-21T01:38:35.655Z,10.97
2022-09-21T01:41:07.163Z,14.20
2022-09-21T01:43:42.827Z,14.90
2022-09-21T01:46:17.703Z,19.00
2022-09-21T01:48:53.143Z,12.50
2022-09-21T01:51:24.493Z,9.63
2022-09-21T01:54:05.464Z,12.43
2022-09-21T01:56:54.863Z,8.63
2022-09-21T01:59:47.599Z,9.53
2022-09-21T02:02:42.163Z,10.23
2022-09-21T02:05:10.777Z,10.75
2022-09-21T02:07:39.629Z,12.38
2022-09-21T02:10:13.534Z,9.77
2022-09-21T02:12:40.698Z,12.63
2022-09-21T02:15:08.615Z,11.73
2022-09-21T02:18:03.767Z,9.50
2022-09-21T02:21:08.650Z,13.93
2022-09-21T02:24:02.061Z,11.73
2022-09-21T02:26:49.375Z,12.10
2022-09-21T02:29:33.513Z,11.90
2022-09-21T02:32:12.461Z,12.50
2022-09-21T02:34:53.388Z,13.75
2022-09-21T02:37:45.925Z,13.65
2022-09-21T02:40:31.456Z,15.87
2022-09-21T02:43:12.162Z,11.53
2022-09-21T02:45:48.124Z,14.00
2022-09-21T02:48:21.553Z,13.30
2022-09-21T02:50:53.987Z,11.18
2022-09-21T02:53:37.049Z,15.30
2022-09-21T02:56:07.351Z,16.70
2022-09-21T02:58:57.340Z,14.43
2022-09-21T03:01:26.482Z,12.55
2022-09-21T03:03:53.657Z,16.70
2022-09-21T03:06:20.709Z,19.70
2022-09-21T03:08:47.695Z,13.75
2022-09-21T03:11:18.992Z,18.10
2022-09-21T03:13:46.475Z,14.63
2022-09-21T03:16:14.047Z,16.53
2022-09-21T03:18:43.207Z,17.60
2022-09-21T03:21:12.406Z,15.23
2022-09-21T03:23:40.387Z,16.93
2022-09-21T03:26:08.605Z,16.10
2022-09-21T03:28:35.733Z,18.73
2022-09-21T03:31:02.940Z,13.52
2022-09-21T03:33:29.998Z,18.40
2022-09-21T03:35:56.998Z,14.77
2022-09-21T03:38:26.976Z,14.40
2022-09-21T03:40:57.957Z,17.50
2022-09-21T03:43:25.396Z,16.08
2022-09-21T03:45:53.213Z,12.75
2022-09-21T03:48:20.217Z,15.68
2022-09-21T03:50:47.171Z,11.97
2022-09-21T03:53:14.213Z,10.95
2022-09-21T03:55:41.869Z,12.55
2022-09-21T03:58:09.100Z,13.67
2022-09-21T04:00:39.202Z,11.75
2022-09-21T04:03:06.259Z,10.73
2022-09-21T04:05:33.186Z,13.23
2022-09-21T04:08:02.079Z,11.80
2022-09-21T04:10:32.876Z,11.70
2022-09-21T04:13:02.123Z,9.17
2022-09-21T04:15:30.081Z,12.70
2022-09-21T04:17:58.018Z,9.13
2022-09-21T04:20:24.979Z,9.53
2022-09-21T04:22:52.598Z,9.68
2022-09-21T04:25:19.881Z,8.60
2022-09-21T04:27:46.888Z,10.10
2022-09-21T04:30:16.139Z,10.27
2022-09-21T04:32:43.468Z,7.40
2022-09-21T04:35:10.974Z,9.00
2022-09-21T04:37:38.003Z,9.70
2022-09-21T04:40:06.421Z,8.27
2022-09-21T04:42:33.661Z,8.35
2022-09-21T04:45:00.746Z,6.53
2022-09-21T04:47:31.096Z,9.38
2022-09-21T04:49:58.063Z,11.98
2022-09-21T04:52:25.645Z,7.97
2022-09-21T04:54:53.260Z,8.07
2022-09-21T04:57:20.293Z,6.75
2022-09-21T04:59:47.257Z,9.25
2022-09-21T05:02:14.200Z,14.35
2022-09-21T05:04:41.215Z,6.43
2022-09-21T05:07:08.140Z,13.65
2022-09-21T05:09:54.081Z,17.00
2022-09-21T05:12:21.036Z,19.85
2022-09-21T05:14:47.968Z,12.32
2022-09-21T05:17:15.039Z,8.05
2022-09-21T05:19:41.947Z,7.63
2022-09-21T05:22:08.985Z,7.20
2022-09-21T05:24:35.898Z,6.25
2022-09-21T05:27:02.846Z,13.17
2022-09-21T05:29:30.072Z,8.55
2022-09-21T05:32:16.198Z,9.63
2022-09-21T05:34:53.285Z,8.27
2022-09-21T05:37:45.832Z,9.48
2022-09-21T05:40:14.333Z,9.88
2022-09-21T05:42:41.917Z,9.02
2022-09-21T05:45:17.401Z,8.10
2022-09-21T05:47:59.017Z,10.23
2022-09-21T05:50:56.973Z,6.55
2022-09-21T05:54:15.441Z,6.25
2022-09-21T05:56:56.440Z,11.27
2022-09-21T05:59:40.528Z,6.75
2022-09-21T06:02:35.838Z,7.18
2022-09-21T06:05:05.947Z,7.13
2022-09-21T06:07:32.893Z,8.45
2022-09-21T06:09:59.808Z,7.53
2022-09-21T06:12:26.736Z,6.57
2022-09-21T06:14:54.004Z,7.53
2022-09-21T06:17:20.901Z,8.75
2022-09-21T06:19:47.892Z,7.03
2022-09-21T06:22:14.855Z,10.15
2022-09-21T06:24:41.797Z,7.00
2022-09-21T06:27:08.713Z,6.38
2022-09-21T06:29:35.667Z,5.30
2022-09-21T06:32:04.845Z,4.68
2022-09-21T06:34:32.031Z,5.32
2022-09-21T06:36:58.979Z,5.38
2022-09-21T06:39:25.883Z,4.85
2022-09-21T06:41:52.933Z,6.63
2022-09-21T06:44:19.839Z,10.82
2022-09-21T06:46:47.037Z,11.40
2022-09-21T06:49:14.020Z,4.72
2022-09-21T06:51:40.928Z,5.25
2022-09-21T06:54:07.950Z,5.57
2022-09-21T06:56:35.777Z,6.18
2022-09-21T06:59:02.687Z,4.75
2022-09-21T07:01:29.740Z,3.65
2022-09-21T07:03:56.868Z,5.82
2022-09-21T07:06:23.790Z,4.70
2022-09-21T07:11:41.895Z,3.72
2022-09-21T07:14:08.884Z,4.68
2022-09-21T07:16:36.035Z,6.88
2022-09-21T07:19:10.926Z,5.18
2022-09-21T07:21:38.463Z,9.15
2022-09-21T07:24:11.072Z,7.35
2022-09-21T07:26:39.175Z,5.70
2022-09-21T07:29:06.605Z,5.82
2022-09-21T07:31:33.800Z,10.73
2022-09-21T07:34:00.816Z,3.53
2022-09-21T07:36:27.789Z,4.25
2022-09-21T07:38:54.716Z,7.38
2022-09-21T07:41:22.505Z,8.52
2022-09-21T07:43:49.471Z,6.53
2022-09-21T07:46:16.475Z,4.00
2022-09-21T07:48:43.624Z,3.30
2022-09-21T07:51:13.726Z,4.55
2022-09-21T07:53:44.113Z,5.50
2022-09-21T07:56:17.525Z,1.98
2022-09-21T07:59:03.561Z,4.63
2022-09-21T08:01:31.058Z,3.67
2022-09-21T08:03:59.130Z,4.45
2022-09-21T08:06:30.999Z,3.50
2022-09-21T08:08:58.343Z,3.70
2022-09-21T08:11:27.740Z,9.43
2022-09-21T08:14:02.585Z,4.82
2022-09-21T08:16:31.643Z,3.42
2022-09-21T08:18:58.674Z,8.85
2022-09-21T08:21:25.643Z,9.15
2022-09-21T08:23:52.598Z,6.55
2022-09-21T08:26:20.682Z,4.85
2022-09-21T08:28:51.549Z,12.80
2022-09-21T08:31:22.190Z,5.32
2022-09-21T08:33:50.201Z,7.18
2022-09-21T08:36:18.766Z,3.70
2022-09-21T08:38:46.314Z,4.60
2022-09-21T08:41:28.248Z,3.90
2022-09-21T08:44:11.860Z,4.97
2022-09-21T08:46:40.281Z,4.47
2022-09-21T08:49:16.476Z,6.40
2022-09-21T08:52:15.289Z,6.38
2022-09-21T08:55:19.158Z,10.23
2022-09-21T08:57:46.158Z,6.07
2022-09-21T09:00:19.276Z,6.25
2022-09-21T09:03:05.289Z,3.25
2022-09-21T09:06:04.130Z,4.53
2022-09-21T09:09:08.561Z,6.15
2022-09-21T09:12:06.344Z,15.00
2022-09-21T09:14:56.198Z,7.40
2022-09-21T09:17:43.011Z,16.02
2022-09-21T09:20:39.812Z,5.38
2022-09-21T09:23:43.448Z,4.32
2022-09-21T09:26:20.644Z,2.05
2022-09-21T09:29:01.635Z,3.83
2022-09-21T09:31:37.146Z,2.30
2022-09-21T09:34:14.572Z,3.08
2022-09-21T09:36:58.827Z,1.52
2022-09-21T09:39:29.421Z,3.38
2022-09-21T09:42:15.135Z,4.57
2022-09-21T09:45:26.246Z,1.65
2022-09-21T09:48:17.612Z,2.00
2022-09-21T09:50:45.028Z,5.15
2022-09-21T09:53:26.665Z,5.07
2022-09-21T09:55:58.432Z,1.58
2022-09-21T09:58:50.868Z,3.33
2022-09-21T10:01:43.199Z,3.47
2022-09-21T10:04:14.868Z,2.78
2022-09-21T10:06:46.345Z,2.30
2022-09-21T10:09:31.361Z,3.53
2022-09-21T10:12:27.462Z,4.70
2022-09-21T10:15:00.120Z,6.10
2022-09-21T10:17:27.788Z,6.10
2022-09-21T10:20:06.470Z,4.43
2022-09-21T10:22:33.481Z,1.90
2022-09-21T10:25:05.208Z,3.22
2022-09-21T10:27:37.485Z,2.10
2022-09-21T10:30:05.040Z,2.92
2022-09-21T10:32:32.135Z,7.35
2022-09-21T10:35:07.887Z,14.55
2022-09-21T10:37:53.658Z,11.63
2022-09-21T10:40:20.573Z,18.45
2022-09-21T10:42:53.971Z,6.28
2022-09-21T10:45:25.680Z,11.57
2022-09-21T10:48:15.436Z,18.52
2022-09-21T10:50:46.433Z,9.77
2022-09-21T10:53:34.677Z,9.68
2022-09-21T10:56:18.882Z,15.00
2022-09-21T10:59:10.359Z,9.50
2022-09-21T11:01:42.802Z,19.45
2022-09-21T11:04:28.116Z,4.85
2022-09-21T11:07:07.867Z,17.27
2022-09-21T11:09:47.363Z,5.40
2022-09-21T11:12:33.126Z,4.75
2022-09-21T11:15:11.648Z,6.78
2022-09-21T11:18:21.724Z,3.08
2022-09-21T11:20:59.721Z,2.67
2022-09-21T11:24:10.611Z,2.08
2022-09-21T11:26:54.666Z,1.13
2022-09-21T11:30:01.803Z,8.52
2022-09-21T11:33:00.821Z,0.98
2022-09-21T11:36:01.364Z,3.13
2022-09-21T11:39:01.248Z,5.40
2022-09-21T11:41:44.802Z,1.27
2022-09-21T11:44:31.371Z,2.90
2022-09-21T11:47:04.306Z,6.65
2022-09-21T11:50:26.527Z,1.80
2022-09-21T11:53:22.677Z,15.80
2022-09-21T11:56:11.781Z,10.48
2022-09-21T11:58:57.794Z,3.30
2022-09-21T12:01:46.471Z,2.95
2022-09-21T12:04:43.526Z,3.15
2022-09-21T12:07:36.436Z,4.05
2022-09-21T12:10:18.738Z,1.00
2022-09-21T12:13:23.754Z,1.75
2022-09-21T12:16:03.327Z,1.52
2022-09-21T12:19:10.931Z,0.75
2022-09-21T12:21:45.850Z,1.35
2022-09-21T12:24:31.216Z,4.13
2022-09-21T12:27:08.681Z,2.67
2022-09-21T12:29:47.302Z,6.80
2022-09-21T12:32:55.828Z,4.97
2022-09-21T12:35:47.870Z,3.40
2022-09-21T12:38:36.543Z,3.47
2022-09-21T12:41:47.460Z,5.90
2022-09-21T12:44:52.379Z,3.83
2022-09-21T12:47:42.247Z,4.03
2022-09-21T12:50:32.099Z,4.95
2022-09-21T12:52:59.873Z,11.38
2022-09-21T12:55:34.081Z,12.88
2022-09-21T12:58:25.360Z,7.53
2022-09-21T13:01:29.229Z,2.53
2022-09-21T13:04:36.141Z,2.05
2022-09-21T13:07:55.833Z,1.65
2022-09-21T13:10:28.870Z,5.22
2022-09-21T13:13:02.150Z,4.28
2022-09-21T13:15:42.252Z,17.33
2022-09-21T13:18:33.763Z,5.63
2022-09-21T13:21:26.595Z,1.50
2022-09-21T13:24:01.735Z,1.88
2022-09-21T13:26:51.276Z,1.60
2022-09-21T13:29:19.029Z,5.18
2022-09-21T13:32:20.428Z,4.88
2022-09-21T13:34:50.973Z,2.47
2022-09-21T13:37:20.960Z,6.20
2022-09-21T13:40:05.329Z,1.60
2022-09-21T13:42:35.050Z,2.20
2022-09-21T13:45:24.050Z,1.35
2022-09-21T13:48:01.037Z,1.90
2022-09-21T13:50:43.291Z,2.75
2022-09-21T13:53:25.289Z,4.63
2022-09-21T13:55:59.906Z,4.88
2022-09-21T13:58:44.055Z,1.70
2022-09-21T14:01:48.309Z,7.32
2022-09-21T14:04:37.190Z,6.75
2022-09-21T14:07:07.913Z,2.97
2022-09-21T14:09:57.825Z,4.43
2022-09-21T14:12:27.487Z,2.05
2022-09-21T14:15:16.337Z,1.38
2022-09-21T14:17:44.146Z,3.85
2022-09-21T14:20:35.801Z,2.50
2022-09-21T14:23:24.145Z,2.75
2022-09-21T14:26:01.950Z,2.90
2022-09-21T14:28:34.886Z,1.80
2022-09-21T14:31:10.315Z,3.15
2022-09-21T14:33:55.043Z,5.70
2022-09-21T14:36:47.145Z,2.72
2022-09-21T14:39:26.102Z,1.40
2022-09-21T14:41:58.229Z,3.53
2022-09-21T14:44:30.613Z,3.60
2022-09-21T14:47:28.837Z,3.70
2022-09-21T14:50:24.207Z,3.65
2022-09-21T14:53:29.131Z,1.05
2022-09-21T14:56:29.941Z,2.75
2022-09-21T14:59:23.450Z,2.92
2022-09-21T15:02:02.435Z,2.53
2022-09-21T15:05:15.759Z,1.20
2022-09-21T15:08:42.385Z,1.42
2022-09-21T15:11:32.201Z,2.22
2022-09-21T15:14:30.213Z,1.40
2022-09-21T15:16:57.249Z,2.80
2022-09-21T15:19:29.697Z,2.20
2022-09-21T15:22:11.829Z,4.65
2022-09-21T15:24:53.988Z,5.10
2022-09-21T15:27:25.231Z,3.10
2022-09-21T15:29:56.456Z,9.32
2022-09-21T15:32:43.698Z,3.85
2022-09-21T15:35:22.030Z,3.05
2022-09-21T15:37:51.229Z,1.48
2022-09-21T15:40:28.396Z,1.63
2022-09-21T15:43:01.128Z,2.08
2022-09-21T15:45:37.296Z,2.92
2022-09-21T15:48:12.834Z,2.50
2022-09-21T15:50:43.155Z,2.63
2022-09-21T15:53:22.541Z,7.60
2022-09-21T15:55:50.509Z,2.38
2022-09-21T15:58:35.824Z,1.52
2022-09-21T16:01:12.250Z,2.22
2022-09-21T16:03:40.189Z,2.53
2022-09-21T16:06:35.611Z,4.03
2022-09-21T16:09:26.032Z,2.55
2022-09-21T16:11:55.961Z,1.88
2022-09-21T16:14:41.881Z,2.38
2022-09-21T16:17:20.348Z,2.53
2022-09-21T16:19:56.718Z,2.03
2022-09-21T16:22:41.139Z,3.00
2022-09-21T16:25:37.185Z,1.73
2022-09-21T16:28:19.162Z,3.33
2022-09-21T16:30:48.949Z,1.05
2022-09-21T16:33:49.896Z,8.40
2022-09-21T16:36:20.154Z,5.25
2022-09-21T16:38:47.270Z,2.55
2022-09-21T16:41:14.830Z,2.33
2022-09-21T16:43:43.782Z,2.90
2022-09-21T16:46:13.017Z,5.18
2022-09-21T16:48:40.655Z,3.78
2022-09-21T16:51:22.356Z,4.97
2022-09-21T16:53:49.307Z,3.60
2022-09-21T16:56:17.224Z,3.17
2022-09-21T16:58:45.208Z,4.60
2022-09-21T17:01:18.742Z,1.38
2022-09-21T17:03:47.466Z,2.75
2022-09-21T17:06:18.528Z,1.92
2022-09-21T17:08:51.346Z,3.55
2022-09-21T17:11:20.268Z,2.33
2022-09-21T17:13:51.220Z,1.77
2022-09-21T17:16:20.158Z,2.40
2022-09-21T17:18:49.105Z,6.90
2022-09-21T17:21:16.835Z,2.50
2022-09-21T17:23:43.872Z,4.93
2022-09-21T17:26:21.077Z,1.77
2022-09-21T17:28:48.096Z,4.22
2022-09-21T17:31:17.149Z,7.38
2022-09-21T17:33:46.499Z,5.78
2022-09-21T17:36:14.903Z,6.40
2022-09-21T17:38:44.982Z,6.38
2022-09-21T17:41:40.167Z,10.10
2022-09-21T17:45:08.107Z,4.72
2022-09-21T17:47:35.731Z,2.33
2022-09-21T17:50:27.342Z,5.20
2022-09-21T17:53:14.908Z,4.43
2022-09-21T17:55:54.681Z,7.25
2022-09-21T17:58:36.510Z,3.20
2022-09-21T18:01:27.520Z,4.97
2022-09-21T18:03:54.959Z,3.70
2022-09-21T18:06:22.926Z,8.20
2022-09-21T18:08:50.705Z,6.18
2022-09-21T18:12:11.963Z,4.65
2022-09-21T18:15:05.295Z,4.25
2022-09-21T18:18:03.662Z,6.63
2022-09-21T18:21:03.800Z,7.47
2022-09-21T18:24:07.890Z,8.38
2022-09-21T18:26:35.355Z,6.47
2022-09-21T18:29:22.559Z,6.80
2022-09-21T18:32:18.135Z,5.35
2022-09-21T18:35:01.861Z,7.63
2022-09-21T18:37:59.535Z,7.25
2022-09-21T18:40:44.397Z,4.15
2022-09-21T18:43:42.185Z,6.03
2022-09-21T18:46:24.789Z,4.88
2022-09-21T18:49:06.007Z,5.57
2022-09-21T18:51:51.687Z,4.78
2022-09-21T18:54:22.669Z,5.50
2022-09-21T18:56:50.219Z,6.82
2022-09-21T18:59:17.898Z,7.72
2022-09-21T19:01:47.213Z,8.48
2022-09-21T19:04:17.127Z,8.02
2022-09-21T19:07:17.956Z,6.97
2022-09-21T19:09:59.783Z,8.52
2022-09-21T19:12:44.197Z,5.00
2022-09-21T19:16:00.834Z,7.32
2022-09-21T19:18:39.870Z,4.88
2022-09-21T19:21:33.181Z,10.80
2022-09-21T19:24:23.145Z,8.30
2022-09-21T19:27:23.200Z,8.88
2022-09-21T19:30:14.547Z,5.88
2022-09-21T19:32:58.409Z,8.18
2022-09-21T19:35:29.144Z,4.30
2022-09-21T19:38:02.259Z,6.07
2022-09-21T19:40:33.400Z,8.40
2022-09-21T19:43:50.907Z,5.80
2022-09-21T19:46:54.509Z,7.65
2022-09-21T19:49:24.325Z,11.27
2022-09-21T19:51:55.919Z,14.05
2022-09-21T19:54:43.817Z,9.52
2022-09-21T19:57:35.835Z,7.47
2022-09-21T20:00:06.397Z,13.45
2022-09-21T20:03:17.609Z,8.00
2022-09-21T20:06:22.850Z,8.82
2022-09-21T20:09:18.067Z,7.13
2022-09-21T20:11:52.112Z,8.48
2022-09-21T20:14:30.857Z,6.43
2022-09-21T20:17:00.996Z,9.60
2022-09-21T20:20:08.082Z,9.40
2022-09-21T20:22:40.631Z,8.13
2022-09-21T20:25:31.168Z,7.78
2022-09-21T20:27:59.525Z,16.05
2022-09-21T20:30:33.262Z,19.70
2022-09-21T20:33:14.714Z,15.82
2022-09-21T20:35:42.994Z,16.48
2022-09-21T20:38:12.768Z,14.73
2022-09-21T20:40:41.847Z,13.82
2022-09-21T20:43:14.188Z,16.60
2022-09-21T20:45:46.340Z,18.23
2022-09-21T20:48:13.571Z,23.20
2022-09-21T20:50:49.405Z,15.75
2022-09-21T20:53:17.585Z,18.08
2022-09-21T20:55:55.102Z,15.20
2022-09-21T20:58:22.309Z,12.07
2022-09-21T21:00:50.517Z,14.77
2022-09-21T21:03:19.213Z,18.05
2022-09-21T21:05:46.150Z,15.63
2022-09-21T21:08:13.240Z,13.35
2022-09-21T21:10:46.658Z,13.35
2022-09-21T21:13:13.678Z,10.48
2022-09-21T21:15:40.662Z,11.77
2022-09-21T21:18:12.486Z,11.88
2022-09-21T21:20:41.124Z,6.88
2022-09-21T21:23:08.435Z,7.20
2022-09-21T21:25:36.404Z,8.63
2022-09-21T21:28:04.432Z,6.28
2022-09-21T21:30:31.801Z,9.23
2022-09-21T21:32:59.433Z,7.13
2022-09-21T21:35:30.213Z,9.27
2022-09-21T21:37:59.039Z,7.68
2022-09-21T21:40:26.199Z,8.23
2022-09-21T21:42:56.226Z,6.85
2022-09-21T21:45:23.692Z,5.88
2022-09-21T21:47:51.070Z,6.22
2022-09-21T21:50:18.089Z,7.50
2022-09-21T21:52:45.301Z,5.67
2022-09-21T21:55:12.646Z,6.55
2022-09-21T21:57:40.101Z,4.80
2022-09-21T22:00:09.019Z,6.53
2022-09-21T22:02:35.976Z,7.18
2022-09-21T22:05:03.045Z,10.20
2022-09-21T22:07:29.967Z,6.07
2022-09-21T22:09:56.873Z,5.03
2022-09-21T22:12:24.944Z,5.45
2022-09-21T22:14:51.941Z,5.63
2022-09-21T22:17:19.333Z,4.83
2022-09-21T22:19:46.887Z,4.43
2022-09-21T22:22:13.829Z,5.25
2022-09-21T22:24:40.723Z,7.57
2022-09-21T22:27:07.673Z,11.67
2022-09-21T22:29:35.434Z,5.35
2022-09-21T22:32:02.784Z,6.00
2022-09-21T22:34:30.675Z,5.40
2022-09-21T22:36:59.221Z,9.60
2022-09-21T22:39:26.200Z,8.27
2022-09-21T22:41:53.170Z,7.90
2022-09-21T22:44:20.154Z,10.10
2022-09-21T22:46:47.044Z,7.77
2022-09-21T22:49:14.001Z,8.73
2022-09-21T22:51:41.022Z,10.00
2022-09-21T22:54:08.052Z,9.80
2022-09-21T22:56:35.339Z,9.00
2022-09-21T22:59:05.605Z,11.02
2022-09-21T23:01:39.378Z,9.37
2022-09-21T23:04:10.943Z,5.20
2022-09-21T23:06:41.910Z,6.20
2022-09-21T23:09:14.767Z,8.53
2022-09-21T23:11:47.626Z,8.93
2022-09-21T23:14:16.472Z,7.53
2022-09-21T23:16:43.767Z,6.18
2022-09-21T23:19:15.995Z,5.40
2022-09-21T23:21:50.038Z,8.65
2022-09-21T23:24:17.756Z,6.18
2022-09-21T23:26:45.634Z,5.77
2022-09-21T23:29:15.223Z,6.63
2022-09-21T23:31:45.489Z,4.10
2022-09-21T23:34:14.173Z,4.57
2022-09-21T23:36:42.489Z,5.83
2022-09-21T23:39:13.168Z,6.07
2022-09-21T23:41:40.525Z,5.83
2022-09-21T23:44:07.847Z,8.20
2022-09-21T23:46:37.398Z,7.40
2022-09-21T23:49:04.908Z,5.80
2022-09-21T23:51:32.306Z,6.40
2022-09-21T23:53:59.853Z,8.20
2022-09-21T23:56:28.456Z,7.10
2022-09-21T23:58:56.125Z,5.85
